Details From EDDM - Muenchen Franz-josef Strauss
To GCGM - La Gomera
Flight Number -
Tags Generated
Created
Modified
Stats Distance 1,813 nm / 3,358 km
Max Altitude 0 ft / 0 m
Waypoints 8
Social Downloads 0
Likes 0
Share VATSIM

Download

Looking for another format? Having issues loading an existing format? Contact us
Advertisement - Login to hide

Notes

Generated

Route

EDDM SANET ADEVA R2506 RUSEM OBOLO LGM GCGM

ID Type Via Altitude Latitude Longitude Leg Dist Tot Dist Heading (true) Name
O EDDM APT - 0 ft / 0 m 48.34069˚ 11.75108˚ - 0 nm - -
SANET FIX - 0 ft / 0 m 46.33194˚ 7.27556˚ 218 nm 218 nm 238° / 235° -
ADEVA FIX - 0 ft / 0 m 44.25000˚ 3.26167˚ 210 nm 429 nm 235° / 232° -
R2506 FIX - 0 ft / 0 m 41.65539˚ -1.00832˚ 243 nm 672 nm 232° / 229° -
RUSEM FIX - 0 ft / 0 m 39.00000˚ -4.84694˚ 237 nm 910 nm 229° / 227° -
OBOLO FIX - 0 ft / 0 m 36.53139˚ -8.13250˚ 215 nm 1125 nm 227° / 225° -
LGM VOR - 0 ft / 0 m 28.02874˚ -17.21487˚ 687 nm 1812 nm 225° / 220° LA GOMERA VOR-DME
O GCGM APT - 0 ft / 0 m 28.02859˚ -17.22214˚ 0 nm 1813 nm 269° / 269° -

Altitude Profile

Advertisement - Login to hide

Weather


0- 5 10 15 20 25 30 35+ Temperature / ° C

Clouds and Precipitation
Forecast for 2018-05-27 06:00 UTC. Updated 4 hours ago

Ground ~20,000 ft ~40,000 ft Winds

EDDM

Details ICAO EDDM (MUC)
Name Muenchen Franz-Josef Strauss
Region Germany - Civil
Timezone Europe/Berlin (UTC+2.0)
Stats Elevation 1,487 ft / 453 m (AMSL)
Location 48.353786° 11.786117°
Runways 2
Magnetic Variation 3.216° E

METAR

EDDM 270820Z VRB03KT CAVOK 22/15 Q1020 NOSIG

Decode

TAF

TAF EDDM 270500Z 2706/2812 VRB03KT CAVOK BECMG 2706/2708 07006KT BECMG 2718/2720 VRB03KT BECMG 2805/2807 08008KT

Decode

Departure Runways

ID Width Length Bearing (true) Bearing (mag) Surface Threshold Offset Overrun Length
08L 197 ft / 60 m 13,086 ft / 3,989 m 83.38° 80.16° Concrete 0 ft / 0 m 0 ft / 0 m
08R 197 ft / 60 m 13,086 ft / 3,989 m 83.37° 80.15° Concrete 0 ft / 0 m 0 ft / 0 m
26L 197 ft / 60 m 13,086 ft / 3,989 m 263.41° 260.19° Concrete 0 ft / 0 m 0 ft / 0 m
26R 197 ft / 60 m 13,086 ft / 3,989 m 263.42° 260.20° Concrete 0 ft / 0 m 0 ft / 0 m

GCGM

Details ICAO GCGM (GMZ)
Name La Gomera
Region Canary Islands
Timezone Atlantic/Canary (UTC+1.0)
Stats Elevation 715 ft / 218 m (AMSL)
Location 28.029627° -17.214603°
Runways 1
Magnetic Variation 5.307° W

METAR

GCGM 270830Z 04005KT 320V100 9999 FEW020 19/10 Q1021 RMK R09/21002KT ARP/VRB02KT

Decode

TAF

TAF GCGM 270800Z 2709/2809 VRB05KT 9999 FEW030 TX23/2714Z TN17/2805Z

Decode

Destination Runways

ID Width Length Bearing (true) Bearing (mag) Surface Threshold Offset Overrun Length
09 98 ft / 30 m 4,914 ft / 1,498 m 81.17° 86.48° Asphalt 0 ft / 0 m 0 ft / 0 m
27 98 ft / 30 m 4,914 ft / 1,498 m 261.18° 266.49° Asphalt 0 ft / 0 m 0 ft / 0 m